Time;durP1;ratioP1;P1;durP2;ratioP2;P2;SDS_P1;SDS_P2;PMS_P1;PMS_P2;Temp;Humidity;BMP_temperature;BMP_pressure;BME280_temperature;BME280_humidity;BME280_pressure;Samples;Min_cycle;Max_cycle;Signal;HPM_P1;HPM_P2
2022/04/04 00:01:11;;;;;;;8.70;5.53;;;;;;;;;;5110083;28;20022;-74
2022/04/04 00:03:36;;;;;;;10.95;6.30;;;;;;;;;;5110561;28;20053;-75
2022/04/04 00:06:01;;;;;;;9.85;5.50;;;;;;;;;;5110642;28;20484;-74
2022/04/04 00:08:27;;;;;;;11.52;5.40;;;;;;;;;;5111260;28;20023;-74
2022/04/04 00:10:53;;;;;;;8.00;5.00;;;;;;;;;;5109741;28;20045;-75
2022/04/04 00:13:18;;;;;;;10.50;5.78;;;;;;;;;;5111462;28;20024;-74
2022/04/04 00:15:43;;;;;;;11.20;5.75;;;;;;;;;;5115017;28;20084;-75
2022/04/04 00:18:10;;;;;;;9.93;6.40;;;;;;;;;;5115019;28;20461;-75
2022/04/04 00:20:35;;;;;;;10.60;6.20;;;;;;;;;;5114906;28;20138;-74
2022/04/04 00:23:01;;;;;;;10.57;6.07;;;;;;;;;;5113489;28;20586;-76
2022/04/04 00:25:26;;;;;;;9.68;5.90;;;;;;;;;;5113966;28;20016;-73
2022/04/04 00:27:51;;;;;;;12.98;5.78;;;;;;;;;;5114901;28;20033;-74
2022/04/04 00:30:17;;;;;;;12.18;6.55;;;;;;;;;;5114608;28;20032;-74
2022/04/04 00:32:43;;;;;;;10.20;5.95;;;;;;;;;;5114460;28;20472;-74
2022/04/04 00:35:08;;;;;;;12.23;6.45;;;;;;;;;;5114507;28;20046;-74
2022/04/04 00:37:37;;;;;;;11.73;6.15;;;;;;;;;;5114301;27;20492;-74
2022/04/04 00:40:06;;;;;;;13.20;6.43;;;;;;;;;;5114516;28;20020;-74
2022/04/04 00:42:32;;;;;;;14.68;6.47;;;;;;;;;;5113412;28;20023;-74
2022/04/04 00:44:57;;;;;;;16.92;6.45;;;;;;;;;;5114550;28;20016;-74
2022/04/04 00:47:23;;;;;;;11.40;5.95;;;;;;;;;;5115490;28;20495;-74
2022/04/04 00:49:48;;;;;;;10.65;6.47;;;;;;;;;;5117567;27;20503;-74
2022/04/04 00:52:13;;;;;;;11.25;6.43;;;;;;;;;;5114716;28;20024;-74
2022/04/04 00:54:39;;;;;;;17.30;6.53;;;;;;;;;;5114742;28;20027;-75
2022/04/04 00:57:04;;;;;;;14.40;7.38;;;;;;;;;;5114653;28;20038;-74
2022/04/04 00:59:29;;;;;;;11.38;6.47;;;;;;;;;;5112503;28;20498;-74
2022/04/04 01:01:55;;;;;;;12.63;6.85;;;;;;;;;;5112569;28;20036;-74
2022/04/04 01:04:20;;;;;;;11.88;6.97;;;;;;;;;;5113974;28;20418;-74
2022/04/04 01:06:45;;;;;;;21.55;7.68;;;;;;;;;;5112358;28;20023;-74
2022/04/04 01:09:14;;;;;;;16.10;6.82;;;;;;;;;;5115392;28;20093;-75
2022/04/04 01:11:59;;;;;;;10.50;6.78;;;;;;;;;;5112495;28;20030;-74
2022/04/04 01:14:24;;;;;;;12.02;7.82;;;;;;;;;;5112138;28;20042;-74
2022/04/04 01:16:49;;;;;;;13.30;7.57;;;;;;;;;;5113460;28;20473;-75
2022/04/04 01:19:15;;;;;;;13.15;8.13;;;;;;;;;;5112366;28;20069;-74
2022/04/04 01:21:40;;;;;;;12.48;7.20;;;;;;;;;;5113398;28;20024;-74
2022/04/04 01:24:05;;;;;;;19.48;8.65;;;;;;;;;;5113330;28;20063;-73
2022/04/04 01:26:31;;;;;;;14.30;8.32;;;;;;;;;;5113185;28;20015;-74
2022/04/04 01:28:56;;;;;;;15.95;9.07;;;;;;;;;;5113360;28;20027;-74
2022/04/04 01:31:21;;;;;;;14.10;8.05;;;;;;;;;;5113229;28;20066;-74
2022/04/04 01:33:46;;;;;;;13.80;7.80;;;;;;;;;;5113309;28;20076;-74
2022/04/04 01:36:12;;;;;;;14.88;8.88;;;;;;;;;;5112900;28;20061;-73
2022/04/04 01:38:37;;;;;;;17.70;9.32;;;;;;;;;;5113423;27;20020;-74
2022/04/04 01:41:02;;;;;;;20.52;9.80;;;;;;;;;;5112892;28;20031;-74
2022/04/04 01:43:27;;;;;;;16.52;8.80;;;;;;;;;;5112909;28;20056;-75
2022/04/04 01:48:37;;;;;;;18.30;8.27;;;;;;;;;;5113205;28;20141;-73
2022/04/04 01:51:03;;;;;;;19.10;8.40;;;;;;;;;;5116028;27;20110;-74
2022/04/04 01:53:29;;;;;;;14.32;8.98;;;;;;;;;;5132053;27;20027;-73
2022/04/04 01:55:55;;;;;;;14.90;9.00;;;;;;;;;;5132103;27;20134;-73
2022/04/04 01:58:21;;;;;;;14.68;8.02;;;;;;;;;;5133198;27;20097;-74
2022/04/04 02:00:46;;;;;;;13.18;9.00;;;;;;;;;;5133519;27;20086;-74
2022/04/04 02:03:12;;;;;;;16.00;9.50;;;;;;;;;;5133496;27;20019;-75
2022/04/04 02:05:37;;;;;;;17.50;9.05;;;;;;;;;;5133203;27;20436;-74
2022/04/04 02:08:03;;;;;;;14.27;8.70;;;;;;;;;;5131686;27;20718;-73
2022/04/04 02:10:28;;;;;;;15.85;8.82;;;;;;;;;;5132957;27;20023;-74
2022/04/04 02:12:54;;;;;;;14.85;8.77;;;;;;;;;;5132960;27;20110;-74
2022/04/04 02:15:19;;;;;;;18.33;9.43;;;;;;;;;;5132653;27;20480;-74
2022/04/04 02:17:45;;;;;;;14.18;8.55;;;;;;;;;;5132868;27;20468;-74
2022/04/04 02:20:10;;;;;;;19.08;9.98;;;;;;;;;;5132656;27;20024;-73
2022/04/04 02:22:36;;;;;;;17.55;9.63;;;;;;;;;;5131448;27;20114;-73
2022/04/04 02:25:01;;;;;;;14.48;9.40;;;;;;;;;;5132874;27;20100;-74
2022/04/04 02:27:26;;;;;;;14.30;9.05;;;;;;;;;;5132780;27;20020;-73
2022/04/04 02:29:52;;;;;;;14.85;8.73;;;;;;;;;;5132993;27;20023;-73
2022/04/04 02:32:18;;;;;;;16.85;8.95;;;;;;;;;;5132922;27;20019;-73
2022/04/04 02:34:43;;;;;;;21.23;9.15;;;;;;;;;;5132497;27;20031;-74
2022/04/04 02:37:09;;;;;;;18.98;9.13;;;;;;;;;;5131535;27;20023;-73
2022/04/04 02:39:34;;;;;;;15.82;9.15;;;;;;;;;;5132107;27;20119;-74
2022/04/04 02:41:59;;;;;;;19.95;9.88;;;;;;;;;;5133118;27;20080;-74
2022/04/04 02:44:24;;;;;;;15.23;9.85;;;;;;;;;;5132334;27;20071;-74
2022/04/04 02:46:50;;;;;;;14.32;8.60;;;;;;;;;;5132512;27;20030;-76
2022/04/04 02:49:15;;;;;;;16.02;9.32;;;;;;;;;;5132130;27;20019;-73
2022/04/04 02:51:40;;;;;;;15.93;9.13;;;;;;;;;;5132135;27;20103;-73
2022/04/04 02:54:06;;;;;;;13.65;8.88;;;;;;;;;;5132026;27;20107;-74
2022/04/04 02:56:31;;;;;;;16.13;9.15;;;;;;;;;;5132665;27;20383;-73
2022/04/04 02:58:57;;;;;;;15.02;9.38;;;;;;;;;;5133031;27;20483;-73
2022/04/04 03:01:22;;;;;;;15.20;9.50;;;;;;;;;;5134350;27;20050;-73
2022/04/04 03:03:48;;;;;;;19.20;9.15;;;;;;;;;;5132235;27;20051;-73
2022/04/04 03:06:14;;;;;;;15.50;8.93;;;;;;;;;;5131954;27;20041;-74
2022/04/04 03:08:39;;;;;;;18.10;9.15;;;;;;;;;;5130731;27;20057;-74
2022/04/04 03:11:05;;;;;;;16.42;9.15;;;;;;;;;;5131923;27;20031;-74
2022/04/04 03:13:30;;;;;;;17.15;9.20;;;;;;;;;;5132139;27;20396;-74
2022/04/04 03:15:55;;;;;;;14.10;8.70;;;;;;;;;;5131848;27;20081;-74
2022/04/04 03:18:20;;;;;;;12.55;8.32;;;;;;;;;;5131595;27;20456;-74
2022/04/04 03:20:46;;;;;;;12.35;9.07;;;;;;;;;;5131608;27;20090;-73
2022/04/04 03:23:11;;;;;;;13.02;8.55;;;;;;;;;;5131382;27;20388;-73
2022/04/04 03:25:36;;;;;;;17.77;10.10;;;;;;;;;;5130785;27;20077;-74
2022/04/04 03:28:01;;;;;;;14.82;8.43;;;;;;;;;;5131660;28;20023;-74
2022/04/04 03:30:27;;;;;;;15.90;8.80;;;;;;;;;;5131783;27;20089;-73
2022/04/04 03:32:57;;;;;;;14.43;8.07;;;;;;;;;;5131730;27;20023;-74
2022/04/04 03:35:23;;;;;;;13.48;8.18;;;;;;;;;;5131442;27;20019;-74
2022/04/04 03:37:50;;;;;;;14.32;8.13;;;;;;;;;;5131467;27;20026;-74
2022/04/04 03:40:16;;;;;;;15.52;8.68;;;;;;;;;;5131416;27;20016;-74
2022/04/04 03:42:42;;;;;;;13.35;7.47;;;;;;;;;;5131418;27;20070;-74
2022/04/04 03:45:08;;;;;;;14.38;8.38;;;;;;;;;;5131480;27;20055;-73
2022/04/04 03:47:34;;;;;;;14.25;8.25;;;;;;;;;;5131506;27;20023;-74
2022/04/04 03:49:59;;;;;;;13.38;8.15;;;;;;;;;;5135679;27;20030;-74
2022/04/04 03:52:25;;;;;;;14.35;8.90;;;;;;;;;;5135647;27;20051;-74
2022/04/04 03:54:50;;;;;;;14.30;8.65;;;;;;;;;;5137004;27;20080;-74
2022/04/04 03:57:15;;;;;;;15.00;8.27;;;;;;;;;;5134387;27;20058;-74
2022/04/04 03:59:40;;;;;;;14.35;7.75;;;;;;;;;;5132265;27;20023;-71
2022/04/04 04:02:06;;;;;;;14.00;8.70;;;;;;;;;;5126352;27;20015;-74
2022/04/04 04:04:31;;;;;;;16.80;9.75;;;;;;;;;;5116668;27;20456;-74
2022/04/04 04:06:56;;;;;;;15.93;8.32;;;;;;;;;;5116000;27;20040;-75
2022/04/04 04:09:21;;;;;;;16.45;9.48;;;;;;;;;;5135244;27;20015;-75
2022/04/04 04:11:48;;;;;;;16.83;8.00;;;;;;;;;;5135131;27;20034;-74
2022/04/04 04:14:14;;;;;;;14.23;8.82;;;;;;;;;;5135163;27;20023;-73
2022/04/04 04:16:39;;;;;;;13.00;8.10;;;;;;;;;;5134835;27;20051;-74
2022/04/04 04:20:19;;;;;;;17.73;9.35;;;;;;;;;;5135358;27;20042;-74
2022/04/04 04:21:50;;;;;;;16.60;8.35;;;;;;;;;;5119186;27;20031;-72
2022/04/04 04:24:16;;;;;;;15.48;8.80;;;;;;;;;;5119939;27;20023;-75
2022/04/04 04:26:41;;;;;;;12.40;7.85;;;;;;;;;;5115113;27;20024;-74
2022/04/04 04:29:06;;;;;;;13.80;8.27;;;;;;;;;;5134645;27;20023;-75
2022/04/04 04:31:32;;;;;;;16.05;9.43;;;;;;;;;;5130589;27;20034;-73
2022/04/04 04:33:57;;;;;;;13.13;8.35;;;;;;;;;;5116622;27;20020;-73
2022/04/04 04:36:22;;;;;;;15.95;8.07;;;;;;;;;;5128492;27;20469;-74
2022/04/04 04:38:48;;;;;;;15.25;7.68;;;;;;;;;;5134235;27;20011;-71
2022/04/04 04:41:13;;;;;;;15.40;7.72;;;;;;;;;;5113720;28;20030;-73
2022/04/04 04:43:41;;;;;;;14.95;7.88;;;;;;;;;;5113646;28;20138;-73
2022/04/04 04:46:06;;;;;;;12.05;7.53;;;;;;;;;;5113244;28;20026;-74
2022/04/04 04:48:32;;;;;;;13.63;8.65;;;;;;;;;;5118438;27;20090;-73
2022/04/04 04:50:57;;;;;;;13.73;8.20;;;;;;;;;;5124479;27;20027;-73
2022/04/04 04:53:22;;;;;;;14.43;7.72;;;;;;;;;;5121025;27;20004;-74
2022/04/04 04:55:47;;;;;;;17.05;7.78;;;;;;;;;;5122325;27;20399;-75
2022/04/04 04:58:16;;;;;;;15.77;8.50;;;;;;;;;;5122000;27;20019;-75
2022/04/04 05:00:41;;;;;;;13.70;6.97;;;;;;;;;;5122218;27;20007;-75
2022/04/04 05:03:24;;;;;;;13.68;8.57;;;;;;;;;;5121655;27;20148;-75
2022/04/04 05:05:49;;;;;;;14.93;8.63;;;;;;;;;;5122250;27;20027;-75
2022/04/04 05:08:15;;;;;;;14.05;8.27;;;;;;;;;;5121565;27;20057;-74
2022/04/04 05:10:40;;;;;;;17.38;8.43;;;;;;;;;;5122529;27;20028;-75
2022/04/04 05:13:05;;;;;;;14.90;8.45;;;;;;;;;;5114474;28;20019;-73
2022/04/04 05:15:31;;;;;;;16.23;8.40;;;;;;;;;;5113292;27;20086;-73
2022/04/04 05:17:56;;;;;;;14.82;8.63;;;;;;;;;;5126996;27;20476;-74
2022/04/04 05:20:22;;;;;;;16.27;8.10;;;;;;;;;;5122693;27;20056;-72
2022/04/04 05:22:47;;;;;;;14.38;7.78;;;;;;;;;;5120171;27;20389;-73
2022/04/04 05:25:13;;;;;;;12.35;7.53;;;;;;;;;;5121082;27;20008;-73
2022/04/04 05:27:39;;;;;;;12.30;8.13;;;;;;;;;;5122710;27;20011;-72
2022/04/04 05:30:04;;;;;;;17.10;9.35;;;;;;;;;;5122306;27;20031;-74
2022/04/04 05:32:29;;;;;;;13.43;7.75;;;;;;;;;;5120330;27;20411;-73
2022/04/04 05:34:55;;;;;;;14.98;8.07;;;;;;;;;;5124191;27;20034;-73
2022/04/04 05:37:20;;;;;;;14.30;8.85;;;;;;;;;;5122681;27;20043;-73
2022/04/04 05:39:45;;;;;;;14.95;8.55;;;;;;;;;;5122175;27;20016;-73
2022/04/04 05:42:10;;;;;;;11.88;8.02;;;;;;;;;;5123404;27;20387;-74
2022/04/04 05:44:36;;;;;;;15.63;7.78;;;;;;;;;;5132599;27;20175;-73
2022/04/04 05:47:01;;;;;;;21.27;8.23;;;;;;;;;;5119565;27;20011;-73
2022/04/04 05:49:26;;;;;;;14.93;8.30;;;;;;;;;;5116002;27;20411;-73
2022/04/04 05:51:52;;;;;;;12.30;7.13;;;;;;;;;;5133014;27;20019;-72
2022/04/04 05:54:17;;;;;;;14.77;8.55;;;;;;;;;;5132907;27;20476;-73
2022/04/04 05:56:45;;;;;;;12.75;7.22;;;;;;;;;;5133097;27;20070;-73
2022/04/04 05:59:14;;;;;;;12.75;7.30;;;;;;;;;;5133751;27;20042;-74
2022/04/04 06:01:39;;;;;;;17.00;7.35;;;;;;;;;;5119074;27;20043;-72
2022/04/04 06:04:05;;;;;;;14.25;7.50;;;;;;;;;;5111787;28;20046;-72
2022/04/04 06:06:30;;;;;;;15.07;7.75;;;;;;;;;;5111937;28;20032;-75
2022/04/04 06:08:55;;;;;;;13.20;8.32;;;;;;;;;;5130740;27;20011;-72
2022/04/04 06:11:21;;;;;;;12.82;7.13;;;;;;;;;;5132001;27;20506;-73
2022/04/04 06:13:46;;;;;;;11.95;7.55;;;;;;;;;;5132529;27;20019;-72
2022/04/04 06:16:11;;;;;;;13.25;8.40;;;;;;;;;;5124464;27;20043;-72
2022/04/04 06:18:36;;;;;;;17.67;8.13;;;;;;;;;;5111213;28;20020;-72
2022/04/04 06:21:05;;;;;;;13.60;7.43;;;;;;;;;;5109630;28;20110;-72
2022/04/04 06:23:33;;;;;;;13.98;8.93;;;;;;;;;;5111792;28;20491;-72
2022/04/04 06:25:59;;;;;;;14.57;7.90;;;;;;;;;;5111965;28;20450;-72
2022/04/04 06:28:24;;;;;;;10.85;7.57;;;;;;;;;;5111462;28;20099;-72
2022/04/04 06:30:51;;;;;;;13.70;7.15;;;;;;;;;;5110941;28;20468;-72
2022/04/04 06:33:16;;;;;;;16.52;9.40;;;;;;;;;;5111101;27;20018;-73
2022/04/04 06:35:44;;;;;;;13.45;7.60;;;;;;;;;;5111091;28;20027;-72
2022/04/04 06:38:10;;;;;;;14.13;7.28;;;;;;;;;;5111638;28;20030;-74
2022/04/04 06:40:35;;;;;;;13.35;8.35;;;;;;;;;;5112394;28;20028;-71
2022/04/04 06:43:01;;;;;;;15.00;7.95;;;;;;;;;;5111572;28;20019;-73
2022/04/04 06:45:26;;;;;;;11.95;6.75;;;;;;;;;;5110866;28;20415;-72
2022/04/04 06:47:51;;;;;;;11.63;7.43;;;;;;;;;;5110566;28;20028;-72
2022/04/04 06:50:17;;;;;;;12.77;7.45;;;;;;;;;;5111311;27;21068;-72
2022/04/04 06:52:42;;;;;;;13.73;7.95;;;;;;;;;;5110896;28;20098;-74
2022/04/04 06:55:08;;;;;;;14.25;7.10;;;;;;;;;;5118007;27;20035;-74
2022/04/04 06:57:33;;;;;;;16.02;7.07;;;;;;;;;;5111412;28;20027;-73
2022/04/04 06:59:59;;;;;;;11.95;7.82;;;;;;;;;;5111100;28;20019;-75
2022/04/04 07:02:24;;;;;;;10.75;6.57;;;;;;;;;;5109908;27;20623;-76
2022/04/04 07:04:50;;;;;;;11.75;6.55;;;;;;;;;;5115550;27;20415;-73
2022/04/04 07:07:17;;;;;;;11.73;6.07;;;;;;;;;;5131430;27;20019;-72
2022/04/04 07:09:42;;;;;;;11.02;6.68;;;;;;;;;;5131126;27;20048;-74
2022/04/04 07:12:09;;;;;;;12.43;6.63;;;;;;;;;;5131538;27;20019;-74
2022/04/04 07:14:34;;;;;;;12.98;6.78;;;;;;;;;;5120532;27;20015;-74
2022/04/04 07:17:01;;;;;;;16.70;6.65;;;;;;;;;;5111078;28;20107;-74
2022/04/04 07:19:32;;;;;;;11.45;6.45;;;;;;;;;;5111160;28;20028;-73
2022/04/04 07:21:58;;;;;;;12.40;6.70;;;;;;;;;;5113176;28;20016;-74
2022/04/04 07:24:23;;;;;;;16.48;7.38;;;;;;;;;;5115715;28;20475;-76
2022/04/04 07:26:48;;;;;;;11.82;7.25;;;;;;;;;;5112007;28;20020;-74
2022/04/04 07:29:14;;;;;;;12.70;7.63;;;;;;;;;;5110920;28;20015;-74
2022/04/04 07:31:39;;;;;;;11.00;6.57;;;;;;;;;;5111189;28;20033;-74
2022/04/04 07:34:04;;;;;;;12.18;7.55;;;;;;;;;;5112272;28;20027;-74
2022/04/04 07:36:30;;;;;;;11.85;6.57;;;;;;;;;;5112183;28;20062;-74
2022/04/04 07:38:55;;;;;;;12.30;8.27;;;;;;;;;;5111335;28;20027;-74
2022/04/04 07:41:21;;;;;;;16.80;7.32;;;;;;;;;;5110693;28;20396;-74
2022/04/04 07:43:46;;;;;;;13.18;7.05;;;;;;;;;;5110684;28;20016;-74
2022/04/04 07:46:11;;;;;;;9.40;6.45;;;;;;;;;;5110583;28;20035;-74
2022/04/04 07:48:39;;;;;;;12.18;6.65;;;;;;;;;;5110205;28;20016;-74
2022/04/04 07:51:04;;;;;;;11.73;7.43;;;;;;;;;;5110900;28;20099;-74
2022/04/04 07:53:29;;;;;;;10.35;6.93;;;;;;;;;;5110852;28;20111;-74
2022/04/04 07:55:55;;;;;;;11.57;6.07;;;;;;;;;;5110842;28;20036;-74
2022/04/04 07:58:20;;;;;;;13.77;6.30;;;;;;;;;;5110993;28;20027;-74
2022/04/04 08:00:45;;;;;;;15.07;6.78;;;;;;;;;;5110711;28;20252;-74
2022/04/04 08:03:10;;;;;;;9.57;6.20;;;;;;;;;;5122372;28;20027;-74
2022/04/04 08:05:36;;;;;;;10.63;6.50;;;;;;;;;;5131438;28;20007;-74
2022/04/04 08:08:01;;;;;;;10.95;6.93;;;;;;;;;;5131114;27;20015;-74
2022/04/04 08:10:26;;;;;;;12.35;6.22;;;;;;;;;;5131187;27;20015;-76
2022/04/04 08:12:52;;;;;;;10.23;6.13;;;;;;;;;;5131102;28;20042;-74
2022/04/04 08:15:17;;;;;;;12.40;6.53;;;;;;;;;;5132252;27;20047;-75
2022/04/04 08:17:43;;;;;;;11.48;6.53;;;;;;;;;;5131009;27;20074;-73
2022/04/04 08:20:08;;;;;;;11.75;6.18;;;;;;;;;;5117282;27;20045;-73
2022/04/04 08:22:37;;;;;;;10.70;6.35;;;;;;;;;;5116264;28;20443;-74
2022/04/04 08:25:03;;;;;;;11.43;6.47;;;;;;;;;;5121333;27;20012;-73
2022/04/04 08:27:28;;;;;;;11.43;6.78;;;;;;;;;;5118465;27;20016;-72
2022/04/04 08:29:53;;;;;;;11.33;5.73;;;;;;;;;;5119421;28;20798;-74
2022/04/04 08:32:19;;;;;;;9.48;5.88;;;;;;;;;;5119884;28;20759;-72
2022/04/04 08:34:44;;;;;;;9.97;5.67;;;;;;;;;;5119455;27;20022;-72
2022/04/04 08:37:09;;;;;;;15.30;6.18;;;;;;;;;;5124268;27;20287;-74
2022/04/04 08:39:34;;;;;;;12.45;5.95;;;;;;;;;;5120430;27;20474;-74
2022/04/04 08:42:02;;;;;;;12.07;5.80;;;;;;;;;;5124996;27;20031;-74
2022/04/04 08:44:28;;;;;;;10.40;6.45;;;;;;;;;;5122384;27;20591;-73
2022/04/04 08:46:53;;;;;;;10.27;6.60;;;;;;;;;;5122010;27;20502;-73
2022/04/04 08:49:18;;;;;;;11.97;5.87;;;;;;;;;;5124004;27;20008;-72
2022/04/04 08:51:44;;;;;;;11.88;6.43;;;;;;;;;;5116036;27;20275;-75
2022/04/04 08:54:09;;;;;;;10.43;6.22;;;;;;;;;;5119914;27;20019;-75
2022/04/04 08:56:34;;;;;;;11.18;6.53;;;;;;;;;;5113016;28;20120;-75
2022/04/04 08:59:00;;;;;;;8.87;5.60;;;;;;;;;;5118301;27;20024;-74
2022/04/04 09:01:27;;;;;;;13.63;6.25;;;;;;;;;;5126974;27;20763;-74
2022/04/04 09:04:13;;;;;;;12.80;7.30;;;;;;;;;;5133867;27;20003;-76
2022/04/04 09:06:51;;;;;;;8.95;6.15;;;;;;;;;;5133265;27;20114;-74
2022/04/04 09:09:40;;;;;;;13.20;6.60;;;;;;;;;;5133815;27;20068;-77
2022/04/04 09:12:08;;;;;;;15.38;7.18;;;;;;;;;;5114968;27;20046;-74
2022/04/04 09:14:45;;;;;;;12.25;6.20;;;;;;;;;;5113540;28;20024;-79
2022/04/04 09:17:11;;;;;;;10.52;6.47;;;;;;;;;;5114053;28;20027;-73
2022/04/04 09:19:37;;;;;;;13.63;6.68;;;;;;;;;;5115859;27;20023;-73
2022/04/04 09:22:06;;;;;;;13.77;7.90;;;;;;;;;;5133314;27;20015;-73
2022/04/04 09:24:50;;;;;;;16.10;6.70;;;;;;;;;;5127458;27;20028;-74
2022/04/04 09:27:21;;;;;;;11.68;6.57;;;;;;;;;;5117958;27;20016;-73
2022/04/04 09:29:48;;;;;;;11.88;7.05;;;;;;;;;;5118337;27;20011;-72
2022/04/04 09:32:14;;;;;;;17.95;6.68;;;;;;;;;;5120993;27;20035;-72
2022/04/04 09:34:48;;;;;;;10.02;6.70;;;;;;;;;;5117611;28;20050;-79
2022/04/04 09:37:14;;;;;;;13.15;7.20;;;;;;;;;;5116732;28;20073;-75
2022/04/04 09:39:39;;;;;;;11.90;6.88;;;;;;;;;;5112838;28;20062;-72
2022/04/04 09:42:13;;;;;;;9.65;6.40;;;;;;;;;;5112224;28;20035;-74
2022/04/04 09:44:38;;;;;;;8.98;6.63;;;;;;;;;;5112197;28;20092;-74
2022/04/04 09:47:04;;;;;;;9.60;6.10;;;;;;;;;;5118696;27;20565;-75
2022/04/04 09:49:29;;;;;;;9.90;6.75;;;;;;;;;;5133120;27;20251;-75
2022/04/04 09:51:55;;;;;;;8.93;5.95;;;;;;;;;;5118861;27;20030;-74
2022/04/04 09:54:23;;;;;;;9.07;6.00;;;;;;;;;;5112829;28;20039;-74
2022/04/04 09:56:50;;;;;;;8.57;6.10;;;;;;;;;;5112780;28;20437;-75
2022/04/04 09:59:16;;;;;;;9.93;6.35;;;;;;;;;;5112688;28;20495;-75
2022/04/04 10:01:42;;;;;;;12.20;6.70;;;;;;;;;;5125029;27;20034;-74
2022/04/04 10:04:08;;;;;;;12.93;6.25;;;;;;;;;;5132628;27;20023;-75
2022/04/04 10:06:34;;;;;;;11.70;6.78;;;;;;;;;;5132977;27;20491;-75
2022/04/04 10:09:00;;;;;;;11.10;6.60;;;;;;;;;;5132209;27;20015;-75
2022/04/04 10:11:25;;;;;;;15.82;6.57;;;;;;;;;;5132569;27;20027;-75
2022/04/04 10:13:54;;;;;;;14.63;6.20;;;;;;;;;;5130774;27;20008;-75
2022/04/04 10:16:22;;;;;;;8.73;5.55;;;;;;;;;;5132663;27;20058;-75
2022/04/04 10:18:48;;;;;;;11.57;6.68;;;;;;;;;;5133218;27;20015;-74
2022/04/04 10:21:13;;;;;;;10.80;6.97;;;;;;;;;;5133631;27;20064;-74
2022/04/04 10:23:39;;;;;;;11.60;6.07;;;;;;;;;;5132551;27;20388;-76
2022/04/04 10:26:07;;;;;;;13.05;6.70;;;;;;;;;;5133043;27;20019;-76
2022/04/04 10:28:34;;;;;;;9.55;6.93;;;;;;;;;;5132417;27;20137;-73
2022/04/04 10:31:13;;;;;;;11.75;7.30;;;;;;;;;;5132705;27;20054;-74
2022/04/04 10:33:38;;;;;;;13.32;6.78;;;;;;;;;;5121990;27;20026;-74
2022/04/04 10:36:05;;;;;;;10.85;6.70;;;;;;;;;;5112443;28;20102;-74
2022/04/04 10:38:36;;;;;;;11.70;6.55;;;;;;;;;;5112425;28;20019;-74
2022/04/04 10:41:03;;;;;;;12.25;6.63;;;;;;;;;;5120139;27;20024;-73
2022/04/04 10:43:32;;;;;;;10.70;6.22;;;;;;;;;;5120323;27;20043;-74
2022/04/04 10:46:02;;;;;;;11.77;6.88;;;;;;;;;;5122213;27;20678;-75
2022/04/04 10:48:29;;;;;;;13.82;6.47;;;;;;;;;;5118671;27;20098;-73
2022/04/04 10:50:54;;;;;;;11.63;6.75;;;;;;;;;;5118101;27;20011;-76
2022/04/04 10:53:39;;;;;;;12.75;6.90;;;;;;;;;;5122595;27;20361;-73
2022/04/04 10:56:05;;;;;;;9.50;6.38;;;;;;;;;;5122514;27;20060;-73
2022/04/04 10:58:30;;;;;;;10.00;6.55;;;;;;;;;;5124203;27;20023;-73
2022/04/04 11:01:01;;;;;;;14.98;6.95;;;;;;;;;;5115178;27;20541;-73
2022/04/04 11:03:30;;;;;;;11.38;6.78;;;;;;;;;;5114825;27;20019;-73
2022/04/04 11:08:59;;;;;;;17.10;8.10;;;;;;;;;;5126693;27;20404;-73
2022/04/04 11:11:49;;;;;;;10.40;6.47;;;;;;;;;;5114186;27;20020;-73
2022/04/04 11:14:39;;;;;;;13.25;6.93;;;;;;;;;;5120742;27;20043;-73
2022/04/04 11:20:31;;;;;;;;;;;;;;;;;;;;;
2022/04/04 11:22:57;;;;;;;10.43;6.40;;;;;;;;;;5114780;28;20022;-73
2022/04/04 11:25:26;;;;;;;10.73;6.55;;;;;;;;;;5127283;27;20019;-74
2022/04/04 11:27:52;;;;;;;9.10;6.10;;;;;;;;;;5116779;27;20023;-73
2022/04/04 11:30:20;;;;;;;13.25;6.70;;;;;;;;;;5120318;28;20014;-74
2022/04/04 11:33:00;;;;;;;10.10;6.05;;;;;;;;;;5121494;27;20019;-75
2022/04/04 11:35:31;;;;;;;13.15;6.28;;;;;;;;;;5119316;28;20060;-74
2022/04/04 11:38:07;;;;;;;12.18;7.10;;;;;;;;;;5121067;27;20109;-74
2022/04/04 11:40:34;;;;;;;17.80;7.00;;;;;;;;;;5119965;28;20019;-74
2022/04/04 11:43:02;;;;;;;11.05;6.72;;;;;;;;;;5120154;27;20023;-73
2022/04/04 11:45:28;;;;;;;10.93;6.50;;;;;;;;;;5122814;28;20085;-74
2022/04/04 11:47:55;;;;;;;10.30;6.80;;;;;;;;;;5126622;27;20012;-72
2022/04/04 11:50:23;;;;;;;13.38;7.80;;;;;;;;;;5119510;27;20044;-72
2022/04/04 11:52:57;;;;;;;11.55;7.10;;;;;;;;;;5115571;28;20081;-72
2022/04/04 11:55:25;;;;;;;12.85;8.02;;;;;;;;;;5122245;28;20027;-76
2022/04/04 11:58:12;;;;;;;9.75;6.80;;;;;;;;;;5130411;27;20058;-76
2022/04/04 12:00:42;;;;;;;15.90;7.15;;;;;;;;;;5109657;28;20089;-74
2022/04/04 12:03:10;;;;;;;10.60;6.88;;;;;;;;;;5119300;27;20555;-73
2022/04/04 12:05:55;;;;;;;12.18;7.28;;;;;;;;;;5119688;28;20422;-74
2022/04/04 12:08:26;;;;;;;15.27;7.55;;;;;;;;;;5118930;28;20016;-73
2022/04/04 12:10:51;;;;;;;14.10;7.63;;;;;;;;;;5125174;27;20030;-79
2022/04/04 12:13:19;;;;;;;14.05;7.68;;;;;;;;;;5124889;27;20019;-75
2022/04/04 12:15:45;;;;;;;11.20;7.82;;;;;;;;;;5122983;27;20047;-74
2022/04/04 12:18:12;;;;;;;12.88;7.75;;;;;;;;;;5123186;27;20023;-73
2022/04/04 12:20:38;;;;;;;12.27;7.10;;;;;;;;;;5124580;27;20049;-73
2022/04/04 12:25:48;;;;;;;13.10;7.57;;;;;;;;;;5116627;27;20507;-74
2022/04/04 12:28:22;;;;;;;13.32;6.72;;;;;;;;;;5123624;27;20036;-75
2022/04/04 12:30:47;;;;;;;12.38;7.00;;;;;;;;;;5125326;27;20844;-74
2022/04/04 12:33:14;;;;;;;16.98;7.75;;;;;;;;;;5120416;27;20116;-74
2022/04/04 12:35:41;;;;;;;11.90;6.60;;;;;;;;;;5123081;27;20090;-73
2022/04/04 12:38:06;;;;;;;12.40;6.78;;;;;;;;;;5122011;27;20019;-72
2022/04/04 12:40:32;;;;;;;11.07;6.38;;;;;;;;;;5123482;27;20022;-77
2022/04/04 12:43:05;;;;;;;14.98;6.65;;;;;;;;;;5120824;27;20019;-75
2022/04/04 12:45:31;;;;;;;15.48;7.43;;;;;;;;;;5122369;27;20020;-75
2022/04/04 12:47:56;;;;;;;12.15;7.65;;;;;;;;;;5119704;27;20020;-74
2022/04/04 12:50:22;;;;;;;9.40;6.65;;;;;;;;;;5123441;27;20085;-74
2022/04/04 12:52:55;;;;;;;17.13;6.95;;;;;;;;;;5122280;27;20035;-74
2022/04/04 12:55:20;;;;;;;13.30;7.80;;;;;;;;;;5118915;27;20024;-75
2022/04/04 12:57:45;;;;;;;13.75;8.02;;;;;;;;;;5121503;27;20031;-75
2022/04/04 13:00:11;;;;;;;12.68;7.50;;;;;;;;;;5122234;27;20030;-75
2022/04/04 13:02:37;;;;;;;16.77;7.43;;;;;;;;;;5122754;27;20020;-73
2022/04/04 13:05:15;;;;;;;17.17;10.27;;;;;;;;;;5121815;27;20007;-75
2022/04/04 13:08:06;;;;;;;13.98;7.70;;;;;;;;;;5123506;27;20022;-75
2022/04/04 13:10:32;;;;;;;15.80;8.07;;;;;;;;;;5118645;27;20046;-75
2022/04/04 13:13:07;;;;;;;12.43;7.50;;;;;;;;;;5120625;27;20003;-76
2022/04/04 13:15:32;;;;;;;;;;;;;;;;;;5122953;27;20044;-74
2022/04/04 13:17:58;;;;;;;11.25;6.70;;;;;;;;;;5120531;27;19985;-74
2022/04/04 13:20:25;;;;;;;15.02;7.38;;;;;;;;;;5121802;27;20102;-75
2022/04/04 13:22:52;;;;;;;12.35;6.35;;;;;;;;;;5121210;27;20023;-74
2022/04/04 13:25:17;;;;;;;9.20;6.35;;;;;;;;;;5119222;27;20376;-74
2022/04/04 13:27:42;;;;;;;14.10;6.22;;;;;;;;;;5122953;27;20015;-74
2022/04/04 13:30:08;;;;;;;15.93;7.07;;;;;;;;;;5130433;27;20425;-74
2022/04/04 13:32:33;;;;;;;11.27;5.57;;;;;;;;;;5116822;27;20351;-73
2022/04/04 13:34:59;;;;;;;11.75;6.28;;;;;;;;;;5128252;27;20409;-76
2022/04/04 13:37:24;;;;;;;9.40;6.40;;;;;;;;;;5122240;27;20030;-74
2022/04/04 13:39:49;;;;;;;10.70;6.22;;;;;;;;;;5120113;27;20383;-74
2022/04/04 13:42:15;;;;;;;8.70;6.10;;;;;;;;;;5128188;27;20019;-75
2022/04/04 13:44:41;;;;;;;10.65;5.88;;;;;;;;;;5116244;27;20011;-75
2022/04/04 13:47:07;;;;;;;10.32;5.63;;;;;;;;;;5126828;27;20473;-74
2022/04/04 13:49:33;;;;;;;10.38;6.50;;;;;;;;;;5122516;27;20019;-74
2022/04/04 13:51:58;;;;;;;14.52;6.70;;;;;;;;;;5118446;27;20026;-74
2022/04/04 13:54:24;;;;;;;14.30;6.32;;;;;;;;;;5130281;27;20015;-75
2022/04/04 13:56:49;;;;;;;9.70;5.93;;;;;;;;;;5120351;27;20037;-78
2022/04/04 13:59:14;;;;;;;8.57;5.88;;;;;;;;;;5129053;27;20020;-75
2022/04/04 14:01:40;;;;;;;15.43;7.68;;;;;;;;;;5120488;27;20011;-75
2022/04/04 14:04:06;;;;;;;13.82;6.82;;;;;;;;;;5120951;27;20115;-75
2022/04/04 14:06:32;;;;;;;15.82;7.15;;;;;;;;;;5120553;27;20095;-74
2022/04/04 14:08:57;;;;;;;12.98;6.85;;;;;;;;;;5120641;27;20026;-74
2022/04/04 14:11:22;;;;;;;13.57;6.60;;;;;;;;;;5117855;27;20491;-74
2022/04/04 14:13:48;;;;;;;7.93;4.57;;;;;;;;;;5127088;27;20003;-73
2022/04/04 14:16:14;;;;;;;7.70;4.13;;;;;;;;;;5116092;27;20056;-74
2022/04/04 14:18:39;;;;;;;8.52;3.83;;;;;;;;;;5115379;27;20019;-75
2022/04/04 14:21:05;;;;;;;6.38;3.85;;;;;;;;;;5116702;27;20060;-74
2022/04/04 14:23:31;;;;;;;7.65;3.90;;;;;;;;;;5119747;27;20397;-74
2022/04/04 14:25:57;;;;;;;9.05;4.22;;;;;;;;;;5120406;27;20019;-75
2022/04/04 14:28:24;;;;;;;7.25;3.75;;;;;;;;;;5119454;27;20020;-75
2022/04/04 14:30:49;;;;;;;9.40;4.07;;;;;;;;;;5121842;27;20019;-74
2022/04/04 14:33:15;;;;;;;15.27;5.50;;;;;;;;;;5119695;27;20018;-75
2022/04/04 14:35:41;;;;;;;9.45;5.53;;;;;;;;;;5119501;27;20027;-74
2022/04/04 14:38:06;;;;;;;14.05;6.07;;;;;;;;;;5121656;27;20034;-74
2022/04/04 14:40:31;;;;;;;9.68;5.70;;;;;;;;;;5118463;27;20011;-75
2022/04/04 14:42:56;;;;;;;8.05;4.25;;;;;;;;;;5115712;27;20028;-74